Архив погоды в Норске

Метеограмма Норск
Среда, 15 Августа
Время местн. Темп Ветер Видим Явления Облачность нижн/средн/верх Атм. давл. Влжн Точка росы ВНГО R Сост. почвы Tg s
Напр Скр Прв ур.ст ур.м изм
06:00 +11.8° С,С-В 2 - 50 км - ясно 746 765 +0.8 82% +8.8° более 2.5 км - - - -
03:00 +12.2° С,С-В 2 - 50 км - ясно 745 764 +0.4 81% +9° более 2.5 км - - - -
00:00 +9.6° З,С-З 1 - 50 км - ясно 745 764 +1 96% +9° более 2.5 км - - - -
Вторник, 14 Августа
Время местн. Темп Ветер Видим Явления Облачность нижн/средн/верх Атм. давл. Влжн Точка росы ВНГО R Сост. почвы Tg s
Напр Скр Прв ур.ст ур.м изм
21:00 +13.3° штиль 0 - 50 км - переменная облачность 744 762 +1.1 94% +12.4° 1.5 км 0 - - -
18:00 +23.9° С 1 - 50 км - переменная облачность 743 761 +0.1 41% +9.8° 1.5 км - - - -
15:00 +23.1° В 1 - 50 км - преимущественно облачно 743 761 -0.6 46% +11° 1.5 км - - - -
12:00 +22.6° В 2 - 50 км - облачно с прояснениями 743 761 0 51% +11.9° 1.5 км - - - -
09:00 +15.1° С-В 1 - 50 км - облачно с прояснениями 743 762 +0.8 78% +11.3° 1 км 0 Сухая (без трещин) - -
06:00 +11° штиль 0 - 50 км - облачно с прояснениями 742 761 +0.6 96% +10.4° 1.5 км - - - -
03:00 +10.5° штиль 0 - более 50 км - переменная облачность 742 761 +0.5 97% +10° более 2.5 км - - - -
00:00 +11.6° штиль 0 - 50 км - переменная облачность 741 760 +0.5 96% +11° - - - - -
Понедельник, 13 Августа
Время местн. Темп Ветер Видим Явления Облачность нижн/средн/верх Атм. давл. Влжн Точка росы ВНГО R Сост. почвы Tg s
Напр Скр Прв ур.ст ур.м изм
21:00 +14.6° штиль 0 - 50 км - облачно с прояснениями 741 759 +0.8 95% +13.8° 1.5 км - - - -
18:00 +23.7° З,Ю-З 1 - 50 км - переменная облачность 740 758 -0.2 51% +13° 1.5 км - - - -
15:00 +23.7° З 1 - 50 км - переменная облачность 740 758 -0.2 44% +10.7° 1.5 км - - - -
12:00 +21.3° С-З 1 - 50 км - переменная облачность 741 758 -0.2 59% +13° 1.5 км - - - -
09:00 +16.1° В,С-В 2 - 50 км - переменная облачность 741 759 +0.8 77% +12.1° - 0 Сухая (без трещин) - -
06:00 +9° штиль 0 - 50 км - облачно с прояснениями 740 759 +0.4 97% +8.5° 1.5 км - - - -
03:00 +8.3° С,С-З 1 - 50 км - ясно 740 758 +0.2 97% +7.9° более 2.5 км - - - -
00:00 +9.4° штиль 0 - 50 км - ясно 739 758 +0.8 96% +8.8° более 2.5 км - - - -
Воскресенье, 12 Августа
Время местн. Темп Ветер Видим Явления Облачность нижн/средн/верх Атм. давл. Влжн Точка росы ВНГО R Сост. почвы Tg s
Напр Скр Прв ур.ст ур.м изм
21:00 +13.5° З 1 - 50 км - переменная облачность 739 757 +1.1 94% +12.5° 1.5 км 0 - - -
18:00 +22° С-З 3 - 50 км - переменная облачность 738 755 +0.1 50% +11.1° 1.5 км - - - -
15:00 +19.7° В 1 - 50 км - преимущественно облачно 738 756 -0.5 67% +13.4° 1 км - - - -
12:00 +20.1° Ю,Ю-З 1 - более 50 км - преимущественно облачно 738 756 -0.5 61% +12.3° 1.5 км - - - -
09:00 +13.5° Ю-З 1 - 50 км ливневый дождь облачно 739 757 +0.3 89% +11.7° 1 км 0.3 Влажная (без луж) - -
06:00 +11.4° штиль 0 - 20 км - облачно 738 757 +0.2 92% +10.1° 1 км - - - -
03:00 +9.4° З,Ю-З 1 - 50 км - облачно с прояснениями 738 757 0 96% +8.8° более 2.5 км - - - -